Time;durP1;ratioP1;P1;durP2;ratioP2;P2;SDS_P1;SDS_P2;PMS_P1;PMS_P2;Temp;Humidity;BMP_temperature;BMP_pressure;BME280_temperature;BME280_humidity;BME280_pressure;Samples;Min_cycle;Max_cycle;Signal;HPM_P1;HPM_P2
2023/05/02 00:02:08;;;;;;;;;;;;;;;-142.75;100.00;77645.22;4990575;28;19925;-67
2023/05/02 00:04:33;;;;;;;;;;;;;;;-142.75;100.00;77649.16;4989951;28;19918;-67
2023/05/02 00:06:58;;;;;;;;;;;;;;;-142.75;100.00;77635.38;4990117;28;20391;-67
2023/05/02 00:09:24;;;;;;;;;;;;;;;-142.75;100.00;77637.34;4988044;28;20395;-67
2023/05/02 00:11:49;;;;;;;;;;;;;;;-142.75;100.00;77643.25;4987542;28;19917;-67
2023/05/02 00:14:14;;;;;;;;;;;;;;;-142.75;100.00;77643.25;4984776;28;19913;-67
2023/05/02 00:16:40;;;;;;;;;;;;;;;-142.75;100.00;77641.28;4987029;28;19960;-66
2023/05/02 00:19:05;;;;;;;;;;;;;;;-142.75;100.00;77641.28;4990019;28;19967;-67
2023/05/02 00:21:31;;;;;;;;;;;;;;;-142.75;100.00;77633.41;4988296;28;20009;-67
2023/05/02 00:23:57;;;;;;;;;;;;;;;-142.75;100.00;77633.41;5002102;28;19944;-67
2023/05/02 00:26:22;;;;;;;;;;;;;;;-142.75;100.00;77653.09;4985950;28;20442;-67
2023/05/02 00:28:48;;;;;;;;;;;;;;;-142.75;100.00;77639.31;5001338;28;19967;-67
2023/05/02 00:31:13;;;;;;;;;;;;;;;-142.75;100.00;77631.44;4990041;28;19917;-67
2023/05/02 00:33:38;;;;;;;;;;;;;;;-142.75;100.00;77615.69;4991697;28;19920;-67
2023/05/02 00:36:03;;;;;;;;;;;;;;;-142.75;100.00;77619.63;4988563;28;20398;-67
2023/05/02 00:38:29;;;;;;;;;;;;;;;-142.75;100.00;77615.69;4988398;28;19917;-66
2023/05/02 00:40:54;;;;;;;;;;;;;;;-142.75;100.00;77603.88;5001153;28;19913;-67
2023/05/02 00:43:20;;;;;;;;;;;;;;;-142.75;100.00;77615.69;4986550;28;19917;-67
2023/05/02 00:45:45;;;;;;;;;;;;;;;-142.75;100.00;77613.72;4989123;28;19914;-67
2023/05/02 00:48:11;;;;;;;;;;;;;;;-142.75;100.00;77623.56;4986160;28;20318;-66
2023/05/02 00:50:36;;;;;;;;;;;;;;;-142.75;100.00;77613.72;4989552;28;20395;-67
2023/05/02 00:53:05;;;;;;;;;;;;;;;-142.75;100.00;77601.91;4988460;28;20371;-67
2023/05/02 00:55:34;;;;;;;;;;;;;;;-142.75;100.00;77611.75;4979474;28;19914;-67
2023/05/02 00:58:01;;;;;;;;;;;;;;;-142.75;100.00;77601.91;5000518;28;19934;-67
2023/05/02 01:00:43;;;;;;;;;;;;;;;-142.75;100.00;77625.53;4987299;28;19968;-67
2023/05/02 01:03:23;;;;;;;;;;;;;;;-142.75;100.00;77635.38;4987364;28;19980;-67
2023/05/02 01:05:57;;;;;;;;;;;;;;;-142.75;100.00;77635.38;4988668;28;19914;-67
2023/05/02 01:08:33;;;;;;;;;;;;;;;-142.75;100.00;77645.22;4996688;28;19917;-67
2023/05/02 01:11:02;;;;;;;;;;;;;;;-142.75;100.00;77625.53;4988325;28;19920;-67
2023/05/02 01:13:30;;;;;;;;;;;;;;;-142.75;100.00;77641.28;4988691;28;19953;-67
2023/05/02 01:15:57;;;;;;;;;;;;;;;-142.75;100.00;77637.34;4988495;28;19936;-67
2023/05/02 01:18:25;;;;;;;;;;;;;;;-142.75;100.00;77639.31;4988487;28;19921;-67
2023/05/02 01:20:59;;;;;;;;;;;;;;;-142.75;100.00;77627.50;4988746;28;19914;-67
2023/05/02 01:23:36;;;;;;;;;;;;;;;-142.75;100.00;77637.34;4993982;28;19957;-67
2023/05/02 01:26:10;;;;;;;;;;;;;;;-142.75;100.00;77625.53;4988618;28;20597;-67
2023/05/02 01:28:47;;;;;;;;;;;;;;;-142.75;100.00;77649.16;4991294;28;20001;-67
2023/05/02 01:31:14;;;;;;;;;;;;;;;-142.75;100.00;77690.50;4999070;28;19920;-67
2023/05/02 01:33:40;;;;;;;;;;;;;;;-142.75;100.00;77696.41;4988362;28;20017;-67
2023/05/02 01:36:07;;;;;;;;;;;;;;;-142.75;100.00;77676.72;4988274;28;20014;-67
2023/05/02 01:38:33;;;;;;;;;;;;;;;-142.75;100.00;77688.53;4988439;28;19949;-66
2023/05/02 01:41:03;;;;;;;;;;;;;;;-142.75;100.00;77682.63;4988280;28;20329;-66
2023/05/02 01:43:30;;;;;;;;;;;;;;;-142.75;100.00;77720.03;4986704;28;20012;-67
2023/05/02 01:45:57;;;;;;;;;;;;;;;-142.75;100.00;77716.09;4987820;28;19914;-67
2023/05/02 01:48:23;;;;;;;;;;;;;;;-142.75;100.00;77700.34;4986240;28;19957;-67
2023/05/02 01:50:50;;;;;;;;;;;;;;;-142.75;100.00;77710.19;4985566;28;19957;-64
2023/05/02 01:53:16;;;;;;;;;;;;;;;-142.75;100.00;77718.06;4987700;28;19921;-67
2023/05/02 01:55:43;;;;;;;;;;;;;;;-142.75;100.00;77712.16;4989781;28;20413;-66
2023/05/02 01:58:09;;;;;;;;;;;;;;;-142.75;100.00;77714.13;5000348;28;20302;-66
2023/05/02 02:00:35;;;;;;;;;;;;;;;-142.75;100.00;77737.78;4987144;28;19914;-67
2023/05/02 02:03:03;;;;;;;;;;;;;;;-142.75;100.00;77743.69;4988105;28;19917;-67
2023/05/02 02:05:29;;;;;;;;;;;;;;;-142.75;100.00;77741.72;4985040;28;19929;-66
2023/05/02 02:07:54;;;;;;;;;;;;;;;-142.75;100.00;77741.72;4998280;28;19918;-66
2023/05/02 02:10:21;;;;;;;;;;;;;;;-142.75;100.00;77747.63;4988400;28;20299;-66
2023/05/02 02:12:49;;;;;;;;;;;;;;;-142.75;100.00;77751.56;4999704;28;19917;-66
2023/05/02 02:15:17;;;;;;;;;;;;;;;-142.75;100.00;77755.50;4988879;28;19925;-66
2023/05/02 02:17:45;;;;;;;;;;;;;;;-142.75;100.00;77765.34;4994810;28;19913;-66
2023/05/02 02:20:11;;;;;;;;;;;;;;;-142.75;100.00;77775.19;4987715;28;19913;-66
2023/05/02 02:22:37;;;;;;;;;;;;;;;-142.75;100.00;77783.06;4988344;28;19913;-65
2023/05/02 02:25:05;;;;;;;;;;;;;;;-142.75;100.00;77781.09;4987295;28;19921;-66
2023/05/02 02:27:30;;;;;;;;;;;;;;;-142.75;100.00;77777.16;4991964;28;19914;-67
2023/05/02 02:29:55;;;;;;;;;;;;;;;-142.75;100.00;77781.09;4987186;28;19941;-67
2023/05/02 02:32:21;;;;;;;;;;;;;;;-142.75;100.00;77790.94;4988030;28;19913;-67
2023/05/02 02:34:46;;;;;;;;;;;;;;;-142.75;100.00;77812.59;4987196;28;20008;-66
2023/05/02 02:37:17;;;;;;;;;;;;;;;-142.75;100.00;77812.59;4987539;28;19914;-66
2023/05/02 02:39:59;;;;;;;;;;;;;;;-142.75;100.00;77824.41;4987366;28;19993;-66
2023/05/02 02:42:31;;;;;;;;;;;;;;;-142.75;100.00;77818.50;4986207;28;20008;-67
2023/05/02 02:45:11;;;;;;;;;;;;;;;-142.75;100.00;77840.16;4991029;28;19918;-66
2023/05/02 02:47:48;;;;;;;;;;;;;;;-142.75;100.00;77861.81;4987536;28;19917;-65
2023/05/02 02:50:16;;;;;;;;;;;;;;;-142.75;100.00;77861.81;4987192;28;19914;-66
2023/05/02 02:53:02;;;;;;;;;;;;;;;-142.75;100.00;77834.25;4986234;28;19984;-66
2023/05/02 02:55:33;;;;;;;;;;;;;;;-142.75;100.00;77865.75;4987883;28;19929;-67
2023/05/02 02:58:09;;;;;;;;;;;;;;;-142.75;100.00;77879.53;4987196;28;19920;-67
2023/05/02 03:00:34;;;;;;;;;;;;;;;-142.75;100.00;77877.56;4987441;28;19917;-67
2023/05/02 03:03:00;;;;;;;;;;;;;;;-142.75;100.00;77895.28;4985811;28;20497;-66
2023/05/02 03:05:25;;;;;;;;;;;;;;;-142.75;100.00;77897.25;4987160;28;20184;-66
2023/05/02 03:07:51;;;;;;;;;;;;;;;-142.75;100.00;77930.75;4993451;28;19921;-67
2023/05/02 03:10:16;;;;;;;;;;;;;;;-142.75;100.00;77916.97;4986093;28;19968;-66
2023/05/02 03:12:42;;;;;;;;;;;;;;;-142.75;100.00;77901.19;4999989;28;19940;-66
2023/05/02 03:15:22;;;;;;;;;;;;;;;-142.75;100.00;77901.19;4983839;28;19928;-66
2023/05/02 03:17:47;;;;;;;;;;;;;;;-142.75;100.00;77920.91;4985952;28;19943;-67
2023/05/02 03:20:13;;;;;;;;;;;;;;;-142.75;100.00;77926.81;4987178;28;19956;-67
2023/05/02 03:22:38;;;;;;;;;;;;;;;-142.75;100.00;77950.44;4987003;28;19942;-66
2023/05/02 03:25:03;;;;;;;;;;;;;;;-142.75;100.00;77948.47;4986600;28;19948;-67
2023/05/02 03:27:30;;;;;;;;;;;;;;;-142.75;100.00;77956.34;4992943;28;20391;-66
2023/05/02 03:29:55;;;;;;;;;;;;;;;-142.75;100.00;77944.53;4986671;28;20305;-66
2023/05/02 03:32:21;;;;;;;;;;;;;;;-142.75;100.00;77952.41;4982002;28;19956;-66
2023/05/02 03:34:46;;;;;;;;;;;;;;;-142.75;100.00;77956.34;4988340;28;20370;-66
2023/05/02 03:37:11;;;;;;;;;;;;;;;-142.75;100.00;77954.38;4987937;28;19921;-66
2023/05/02 03:39:36;;;;;;;;;;;;;;;-142.75;100.00;77974.06;4990603;28;19913;-65
2023/05/02 03:42:02;;;;;;;;;;;;;;;-142.75;100.00;77972.09;5003057;28;19913;-67
2023/05/02 03:44:27;;;;;;;;;;;;;;;-142.75;100.00;77979.97;4990866;28;20310;-66
2023/05/02 03:46:52;;;;;;;;;;;;;;;-142.75;100.00;77987.84;4989136;28;20283;-67
2023/05/02 03:49:18;;;;;;;;;;;;;;;-142.75;100.00;77979.97;4990512;28;19957;-66
2023/05/02 03:51:43;;;;;;;;;;;;;;;-142.75;100.00;77995.72;4991700;28;20004;-66
2023/05/02 03:54:08;;;;;;;;;;;;;;;-142.75;100.00;77989.81;4989963;28;20278;-66
2023/05/02 03:56:34;;;;;;;;;;;;;;;-142.75;100.00;77987.84;4990537;28;19918;-66
2023/05/02 03:59:00;;;;;;;;;;;;;;;-142.75;100.00;77978.00;4990160;28;19917;-67
2023/05/02 04:01:25;;;;;;;;;;;;;;;-142.75;100.00;78007.53;4990548;28;19920;-66
2023/05/02 04:03:50;;;;;;;;;;;;;;;-142.75;100.00;77999.66;4989695;28;19917;-67
2023/05/02 04:06:16;;;;;;;;;;;;;;;-142.75;100.00;77999.66;4986810;28;19920;-66
2023/05/02 04:08:41;;;;;;;;;;;;;;;-142.75;100.00;78011.47;4989062;28;19976;-67
2023/05/02 04:11:09;;;;;;;;;;;;;;;-142.75;100.00;78042.97;4989919;28;19914;-67
2023/05/02 04:13:35;;;;;;;;;;;;;;;-142.75;100.00;78033.13;5003077;28;19922;-67
2023/05/02 04:16:00;;;;;;;;;;;;;;;-142.75;100.00;78042.97;4986335;28;19960;-66
2023/05/02 04:18:25;;;;;;;;;;;;;;;-142.75;100.00;78031.16;4989864;28;19913;-66
2023/05/02 04:20:50;;;;;;;;;;;;;;;-142.75;100.00;78060.72;4993649;28;19956;-67
2023/05/02 04:23:16;;;;;;;;;;;;;;;-142.75;100.00;78054.81;4989067;28;19968;-67
2023/05/02 04:25:49;;;;;;;;;;;;;;;-142.75;100.00;78046.91;4989726;28;19921;-66
2023/05/02 04:28:14;;;;;;;;;;;;;;;-142.75;100.00;78050.84;4989849;28;19922;-67
2023/05/02 04:30:39;;;;;;;;;;;;;;;-142.75;100.00;78074.50;4989624;28;20299;-66
2023/05/02 04:33:05;;;;;;;;;;;;;;;-142.75;100.00;78078.44;4991640;28;19948;-66
2023/05/02 04:35:30;;;;;;;;;;;;;;;-142.75;100.00;78080.41;4989416;28;19913;-67
2023/05/02 04:37:55;;;;;;;;;;;;;;;-142.75;100.00;78084.34;4988474;28;20366;-66
2023/05/02 04:40:20;;;;;;;;;;;;;;;-142.75;100.00;78082.38;4997117;28;19989;-67
2023/05/02 04:42:46;;;;;;;;;;;;;;;-142.75;100.00;78084.34;4991037;28;20456;-67
2023/05/02 04:45:11;;;;;;;;;;;;;;;-142.75;100.00;78086.31;4988577;28;19921;-66
2023/05/02 04:47:39;;;;;;;;;;;;;;;-142.75;100.00;78086.31;4988323;28;20004;-64
2023/05/02 04:50:05;;;;;;;;;;;;;;;-142.75;100.00;78117.81;4992465;28;19964;-67
2023/05/02 04:52:30;;;;;;;;;;;;;;;-142.75;100.00;78121.75;4985419;28;19929;-66
2023/05/02 04:54:55;;;;;;;;;;;;;;;-142.75;100.00;78088.28;4989022;28;19922;-67
2023/05/02 04:57:21;;;;;;;;;;;;;;;-142.75;100.00;78092.22;4984056;28;20004;-66
2023/05/02 04:59:46;;;;;;;;;;;;;;;-142.75;100.00;78106.00;5002221;28;19914;-66
2023/05/02 05:02:11;;;;;;;;;;;;;;;-142.75;100.00;78096.16;4989493;28;20375;-66
2023/05/02 05:04:37;;;;;;;;;;;;;;;-142.75;100.00;78106.00;4988699;28;20387;-66
2023/05/02 05:07:03;;;;;;;;;;;;;;;-142.75;100.00;78109.94;4989317;28;20418;-66
2023/05/02 05:09:28;;;;;;;;;;;;;;;-142.75;100.00;78074.50;4989089;28;19921;-66
2023/05/02 05:11:53;;;;;;;;;;;;;;;-142.75;100.00;78076.47;4989033;28;19921;-66
2023/05/02 05:14:18;;;;;;;;;;;;;;;-142.75;100.00;78060.72;4988497;28;19909;-66
2023/05/02 05:16:44;;;;;;;;;;;;;;;-142.75;100.00;78050.84;4989666;28;20383;-66
2023/05/02 05:19:09;;;;;;;;;;;;;;;-142.75;100.00;78058.72;4991791;28;19920;-65
2023/05/02 05:21:35;;;;;;;;;;;;;;;-142.75;100.00;78046.91;4989559;28;19913;-66
2023/05/02 05:24:01;;;;;;;;;;;;;;;-142.75;100.00;78062.69;4986716;28;20006;-66
2023/05/02 05:26:26;;;;;;;;;;;;;;;-142.75;100.00;78074.50;4986246;28;20012;-66
2023/05/02 05:28:51;;;;;;;;;;;;;;;-142.75;100.00;78064.66;4988307;28;19914;-66
2023/05/02 05:31:17;;;;;;;;;;;;;;;-142.75;100.00;78068.59;4987733;28;19922;-66
2023/05/02 05:33:42;;;;;;;;;;;;;;;-142.75;100.00;78084.34;4988228;28;19921;-67
2023/05/02 05:36:08;;;;;;;;;;;;;;;-142.75;100.00;78078.44;4988371;28;19921;-65
2023/05/02 05:38:34;;;;;;;;;;;;;;;-142.75;100.00;78080.41;4988737;28;19918;-67
2023/05/02 05:41:00;;;;;;;;;;;;;;;-142.75;100.00;78090.25;4989421;28;19921;-67
2023/05/02 05:43:25;;;;;;;;;;;;;;;-142.75;100.00;78109.94;4988123;28;19918;-66
2023/05/02 05:45:51;;;;;;;;;;;;;;;-142.75;100.00;78135.53;4988289;28;19921;-66
2023/05/02 05:48:16;;;;;;;;;;;;;;;-142.75;100.00;78113.88;4986959;28;20369;-66
2023/05/02 05:50:41;;;;;;;;;;;;;;;-142.75;100.00;78131.59;4985922;28;19920;-66
2023/05/02 05:53:07;;;;;;;;;;;;;;;-142.75;100.00;78121.75;4986340;28;19914;-65
2023/05/02 05:55:32;;;;;;;;;;;;;;;-142.75;100.00;78113.88;4987969;28;19914;-66
2023/05/02 05:57:57;;;;;;;;;;;;;;;-142.75;100.00;78094.19;4988742;28;19913;-66
2023/05/02 06:00:23;;;;;;;;;;;;;;;-142.75;100.00;78092.22;4994641;28;19914;-67
2023/05/02 06:02:48;;;;;;;;;;;;;;;-142.75;100.00;78094.19;4992553;28;19968;-66
2023/05/02 06:05:13;;;;;;;;;;;;;;;-142.75;100.00;78090.25;4987583;28;19984;-66
2023/05/02 06:07:38;;;;;;;;;;;;;;;-142.75;100.00;78092.22;4991430;28;20456;-66
2023/05/02 06:10:04;;;;;;;;;;;;;;;-142.75;100.00;78094.19;4982845;28;19924;-66
2023/05/02 06:12:29;;;;;;;;;;;;;;;-142.75;100.00;78092.22;4987592;28;19918;-67
2023/05/02 06:14:54;;;;;;;;;;;;;;;-142.75;100.00;78098.13;4988975;28;19979;-65
2023/05/02 06:17:21;;;;;;;;;;;;;;;-142.75;100.00;78100.09;4997254;28;20033;-65
2023/05/02 06:19:46;;;;;;;;;;;;;;;-142.75;100.00;78121.75;4988862;28;19914;-64
2023/05/02 06:22:12;;;;;;;;;;;;;;;-142.75;100.00;78102.06;4998441;28;19929;-65
2023/05/02 06:24:37;;;;;;;;;;;;;;;-142.75;100.00;78094.19;4986807;28;19917;-65
2023/05/02 06:27:03;;;;;;;;;;;;;;;-142.75;100.00;78117.81;4987776;28;19921;-66
2023/05/02 06:29:28;;;;;;;;;;;;;;;-142.75;100.00;78121.75;4987186;28;20310;-66
2023/05/02 06:31:56;;;;;;;;;;;;;;;-142.75;100.00;78100.09;4988669;28;20027;-66
2023/05/02 06:34:21;;;;;;;;;;;;;;;-142.75;100.00;78058.72;5000313;28;19913;-66
2023/05/02 06:36:46;;;;;;;;;;;;;;;-142.75;100.00;78019.34;4987078;28;19935;-66
2023/05/02 06:39:12;;;;;;;;;;;;;;;-142.75;100.00;78035.09;4987444;28;19985;-66
2023/05/02 06:41:37;;;;;;;;;;;;;;;-142.75;100.00;78007.53;4979160;28;19914;-66
2023/05/02 06:44:02;;;;;;;;;;;;;;;-142.75;100.00;78042.97;4978962;28;20409;-65
2023/05/02 06:46:29;;;;;;;;;;;;;;;-142.75;100.00;78066.63;4986556;28;19918;-66
2023/05/02 06:48:54;;;;;;;;;;;;;;;-142.75;100.00;78058.72;4985339;28;19917;-66
2023/05/02 06:51:21;;;;;;;;;;;;;;;-142.75;100.00;78062.69;4984576;28;20001;-65
2023/05/02 06:53:46;;;;;;;;;;;;;;;-142.75;100.00;78078.44;4984789;28;20382;-65
2023/05/02 06:56:11;;;;;;;;;;;;;;;-142.75;100.00;78086.31;4987580;28;19923;-66
2023/05/02 06:58:37;;;;;;;;;;;;;;;-142.75;100.00;78094.19;4988076;28;20607;-66
2023/05/02 07:01:02;;;;;;;;;;;;;;;-142.75;100.00;78106.00;4988183;28;20566;-66
2023/05/02 07:03:27;;;;;;;;;;;;;;;-142.75;100.00;78082.38;4979009;28;19963;-66
2023/05/02 07:05:52;;;;;;;;;;;;;;;-142.75;100.00;78096.16;4979549;28;19921;-65
2023/05/02 07:08:19;;;;;;;;;;;;;;;-142.75;100.00;78078.44;4989275;28;19913;-66
2023/05/02 07:10:45;;;;;;;;;;;;;;;-142.75;100.00;78066.63;4991701;28;19914;-66
2023/05/02 07:13:10;;;;;;;;;;;;;;;-142.75;100.00;78086.31;4989108;28;19980;-66
2023/05/02 07:15:35;;;;;;;;;;;;;;;-142.75;100.00;78111.91;4990453;28;19941;-66
2023/05/02 07:18:00;;;;;;;;;;;;;;;-142.75;100.00;78070.56;4986084;28;20000;-66
2023/05/02 07:20:26;;;;;;;;;;;;;;;-142.75;100.00;78046.91;4990968;28;20318;-66
2023/05/02 07:22:51;;;;;;;;;;;;;;;-142.75;100.00;78056.78;4993069;28;19913;-66
2023/05/02 07:25:16;;;;;;;;;;;;;;;-142.75;100.00;78015.41;4992936;28;19926;-66
2023/05/02 07:27:41;;;;;;;;;;;;;;;-142.75;100.00;77983.91;4993564;28;19913;-66
2023/05/02 07:30:07;;;;;;;;;;;;;;;-142.75;100.00;77907.09;4990109;28;20350;-65
2023/05/02 07:32:32;;;;;;;;;;;;;;;-142.75;100.00;77883.47;4996919;28;19913;-67
2023/05/02 07:34:57;;;;;;;;;;;;;;;-142.75;100.00;77879.53;4991832;28;19956;-66
2023/05/02 07:37:22;;;;;;;;;;;;;;;-142.75;100.00;77881.50;4993419;28;19948;-66
2023/05/02 07:39:48;;;;;;;;;;;;;;;-142.75;100.00;77903.16;4990447;28;19960;-66
2023/05/02 07:42:13;;;;;;;;;;;;;;;-142.75;100.00;77918.94;4992069;28;19996;-66
2023/05/02 07:44:38;;;;;;;;;;;;;;;-142.75;100.00;77897.25;4991053;28;19917;-66
2023/05/02 07:47:03;;;;;;;;;;;;;;;-142.75;100.00;77869.69;4990627;28;19917;-66
2023/05/02 07:49:29;;;;;;;;;;;;;;;-142.75;100.00;77818.50;4992434;28;19964;-66
2023/05/02 07:51:55;;;;;;;;;;;;;;;-142.75;100.00;77816.53;4992068;28;20391;-66
2023/05/02 07:54:21;;;;;;;;;;;;;;;-142.75;100.00;77857.88;4992919;28;19968;-66
2023/05/02 07:56:46;;;;;;;;;;;;;;;-142.75;100.00;77920.91;4990502;28;20000;-65
2023/05/02 07:59:12;;;;;;;;;;;;;;;-142.75;100.00;77964.22;4991857;28;19957;-65
2023/05/02 08:01:37;;;;;;;;;;;;;;;-142.75;100.00;77932.72;4979915;28;20398;-65
2023/05/02 08:04:03;;;;;;;;;;;;;;;-142.75;100.00;77940.59;4982897;28;19921;-66
2023/05/02 08:06:28;;;;;;;;;;;;;;;-142.75;100.00;77938.63;4992095;28;21085;-66
2023/05/02 08:08:55;;;;;;;;;;;;;;;-142.75;100.00;77930.75;4991144;28;19925;-66
2023/05/02 08:11:21;;;;;;;;;;;;;;;-142.75;100.00;77885.44;4988374;28;19913;-67
2023/05/02 08:13:46;;;;;;;;;;;;;;;-142.75;100.00;77881.50;4990370;28;20516;-66
2023/05/02 08:16:12;;;;;;;;;;;;;;;-142.75;100.00;77871.66;4990149;28;20009;-65
2023/05/02 08:18:37;;;;;;;;;;;;;;;-142.75;98.75;77861.81;4989349;28;20371;-67
2023/05/02 08:21:02;;;;;;;;;;;;;;;-142.75;100.00;77842.13;4997675;28;19925;-66
2023/05/02 08:23:27;;;;;;;;;;;;;;;-142.75;97.30;77842.13;4989401;28;20326;-66
2023/05/02 08:25:53;;;;;;;;;;;;;;;-142.75;93.46;77867.72;4990312;28;19920;-65
2023/05/02 08:28:18;;;;;;;;;;;;;;;-142.75;95.92;77899.22;4990252;28;19967;-66
2023/05/02 08:30:44;;;;;;;;;;;;;;;-142.75;92.69;77863.78;5005242;28;19921;-64
2023/05/02 08:33:09;;;;;;;;;;;;;;;-142.75;89.75;77879.53;5010185;28;19914;-65
2023/05/02 08:35:35;;;;;;;;;;;;;;;-142.75;89.63;77879.53;5009576;28;19920;-65
2023/05/02 08:38:00;;;;;;;;;;;;;;;-142.75;88.90;77928.78;5009352;28;19991;-66
2023/05/02 08:40:26;;;;;;;;;;;;;;;-142.75;87.61;77944.53;5009874;28;20414;-66
2023/05/02 08:42:51;;;;;;;;;;;;;;;-142.75;90.90;77936.66;5009271;28;19956;-65
2023/05/02 08:45:17;;;;;;;;;;;;;;;-142.75;91.22;77962.25;5007800;28;19948;-66
2023/05/02 08:47:43;;;;;;;;;;;;;;;-142.75;85.84;77989.81;4994959;28;19992;-66
2023/05/02 08:50:11;;;;;;;;;;;;;;;-142.75;85.92;77930.75;4989546;28;20016;-67
2023/05/02 08:52:39;;;;;;;;;;;;;;;-142.75;84.89;77897.25;4987479;28;20089;-67
2023/05/02 08:55:07;;;;;;;;;;;;;;;-142.75;83.13;77922.88;4989897;28;19922;-67
2023/05/02 08:57:33;;;;;;;;;;;;;;;-142.75;83.69;77948.47;4989740;28;20336;-66
2023/05/02 08:59:58;;;;;;;;;;;;;;;-142.75;81.88;77952.41;4989408;28;19918;-67
2023/05/02 09:02:26;;;;;;;;;;;;;;;-142.75;83.19;77938.63;4988625;28;19933;-66
2023/05/02 09:04:53;;;;;;;;;;;;;;;-142.75;83.29;77909.06;4998394;28;20350;-66
2023/05/02 09:07:18;;;;;;;;;;;;;;;-142.75;82.50;77883.47;4988304;28;20434;-66
2023/05/02 09:09:43;;;;;;;;;;;;;;;-142.75;81.91;77850.00;4989332;28;20016;-67
2023/05/02 09:12:09;;;;;;;;;;;;;;;-142.75;78.21;77787.00;4991100;28;19916;-66
2023/05/02 09:14:34;;;;;;;;;;;;;;;-142.75;77.57;77763.38;5008953;28;19941;-67
2023/05/02 09:17:00;;;;;;;;;;;;;;;-142.75;77.33;77727.94;4999225;28;20441;-66
2023/05/02 09:19:28;;;;;;;;;;;;;;;-142.75;77.08;77696.41;4995138;28;19928;-66
2023/05/02 09:21:59;;;;;;;;;;;;;;;-142.75;74.26;77631.44;4985721;28;19967;-65
2023/05/02 09:24:24;;;;;;;;;;;;;;;-142.75;73.16;77603.88;4987179;28;20408;-65
2023/05/02 09:26:56;;;;;;;;;;;;;;;-142.75;73.00;77523.16;4990043;28;19922;-65
2023/05/02 09:29:22;;;;;;;;;;;;;;;-142.75;71.22;77511.34;4997772;28;20024;-65
2023/05/02 09:31:47;;;;;;;;;;;;;;;-142.75;71.34;77511.34;4989404;28;19964;-65
2023/05/02 09:34:14;;;;;;;;;;;;;;;-142.75;73.43;77491.66;4988546;28;19937;-65
2023/05/02 09:36:40;;;;;;;;;;;;;;;-142.75;68.12;77574.34;4988881;28;20295;-66
2023/05/02 09:39:10;;;;;;;;;;;;;;;-142.75;69.37;77590.09;4991891;28;19921;-66
2023/05/02 09:41:38;;;;;;;;;;;;;;;-142.75;73.63;77637.34;4988975;28;19913;-65
2023/05/02 09:44:08;;;;;;;;;;;;;;;-142.75;73.18;77609.78;4989205;28;19979;-67
2023/05/02 09:46:38;;;;;;;;;;;;;;;-142.75;70.83;77540.88;4990104;28;20397;-67
2023/05/02 09:49:03;;;;;;;;;;;;;;;-142.75;70.52;77533.00;4987816;28;19913;-67
2023/05/02 09:51:28;;;;;;;;;;;;;;;-142.75;68.28;77558.59;5007793;28;19920;-66
2023/05/02 09:53:54;;;;;;;;;;;;;;;-142.75;69.23;77550.72;4991583;28;20278;-67
2023/05/02 09:56:20;;;;;;;;;;;;;;;-142.75;68.71;77529.06;4988395;28;20522;-67
2023/05/02 09:58:45;;;;;;;;;;;;;;;-142.75;68.86;77479.84;4988204;28;19913;-66
2023/05/02 10:01:17;;;;;;;;;;;;;;;-142.75;64.60;77489.69;4986658;28;20409;-66
2023/05/02 10:03:45;;;;;;;;;;;;;;;-142.75;68.86;77607.81;4987384;28;20200;-67
2023/05/02 10:06:10;;;;;;;;;;;;;;;-142.75;67.23;77617.66;4987260;28;19914;-67
2023/05/02 10:08:37;;;;;;;;;;;;;;;-142.75;72.14;77558.59;4988852;28;19920;-67
2023/05/02 10:11:04;;;;;;;;;;;;;;;-142.75;70.86;77574.34;4987386;28;20028;-67
2023/05/02 10:13:31;;;;;;;;;;;;;;;-142.75;69.17;77594.03;4988357;28;19929;-66
2023/05/02 10:16:00;;;;;;;;;;;;;;;-142.75;70.22;77621.59;4986998;28;20149;-67
2023/05/02 10:18:40;;;;;;;;;;;;;;;-142.75;68.06;77633.41;4988621;28;19976;-67
2023/05/02 10:21:07;;;;;;;;;;;;;;;-142.75;68.23;77562.53;4990704;28;19920;-67
2023/05/02 10:23:33;;;;;;;;;;;;;;;-142.75;63.73;77511.34;4988237;28;19960;-66
2023/05/02 10:25:58;;;;;;;;;;;;;;;-142.75;63.44;77485.75;4988141;28;19921;-67
2023/05/02 10:28:25;;;;;;;;;;;;;;;-142.75;65.54;77452.25;4990336;28;19980;-67
2023/05/02 10:30:50;;;;;;;;;;;;;;;-142.75;66.27;77450.28;5007680;28;20365;-67
2023/05/02 10:33:17;;;;;;;;;;;;;;;-142.75;65.80;77464.09;5008155;28;19918;-67
2023/05/02 10:35:45;;;;;;;;;;;;;;;-142.75;60.87;77499.53;5007789;28;20000;-67
2023/05/02 10:38:11;;;;;;;;;;;;;;;-142.75;62.43;77499.53;4994790;28;19914;-66
2023/05/02 10:40:37;;;;;;;;;;;;;;;-142.75;66.08;77566.47;4988357;28;19945;-67
2023/05/02 10:43:03;;;;;;;;;;;;;;;-142.75;65.26;77657.03;4987532;28;19918;-66
2023/05/02 10:45:31;;;;;;;;;;;;;;;-142.75;66.17;77629.47;4987898;28;19924;-66
2023/05/02 10:48:15;;;;;;;;;;;;;;;-142.75;69.58;77625.53;4987926;28;19991;-66
2023/05/02 10:50:47;;;;;;;;;;;;;;;-142.75;68.11;77601.91;4987890;28;19913;-66
2023/05/02 10:53:26;;;;;;;;;;;;;;;-142.75;61.07;77566.47;4986641;28;19913;-67
2023/05/02 10:56:10;;;;;;;;;;;;;;;-142.75;58.83;77542.84;4987980;28;19920;-67
2023/05/02 10:58:36;;;;;;;;;;;;;;;-142.75;62.30;77408.94;4988334;28;20399;-67
2023/05/02 11:01:20;;;;;;;;;;;;;;;-142.75;59.82;77436.50;4986861;28;20012;-67
2023/05/02 11:03:58;;;;;;;;;;;;;;;-142.75;62.37;77464.09;4986787;28;19918;-66
2023/05/02 11:06:27;;;;;;;;;;;;;;;-142.75;62.09;77401.06;4986665;28;19913;-67
2023/05/02 11:08:53;;;;;;;;;;;;;;;-142.75;56.98;77375.47;4986899;28;19914;-67
2023/05/02 11:11:48;;;;;;;;;;;;;;;-142.75;57.30;77369.56;4992644;28;19967;-68
2023/05/02 11:14:29;;;;;;;;;;;;;;;-142.75;56.59;77349.88;4979134;28;19918;-67
2023/05/02 11:16:54;;;;;;;;;;;;;;;-142.75;53.75;77361.69;5007856;28;19928;-67
2023/05/02 11:19:20;;;;;;;;;;;;;;;-142.75;52.22;77383.34;5007620;28;20440;-67
2023/05/02 11:21:45;;;;;;;;;;;;;;;-142.75;51.25;77377.44;5004615;28;19913;-67
2023/05/02 11:24:29;;;;;;;;;;;;;;;-142.75;54.80;77322.31;4987197;28;19917;-67
2023/05/02 11:27:14;;;;;;;;;;;;;;;-142.75;56.87;77361.69;4988479;28;19913;-67
2023/05/02 11:29:50;;;;;;;;;;;;;;;-142.75;53.34;77379.41;4985861;28;20027;-66
2023/05/02 11:32:15;;;;;;;;;;;;;;;-142.75;48.69;77361.69;4986925;28;20306;-66
2023/05/02 11:34:41;;;;;;;;;;;;;;;-142.75;55.35;77416.81;4987524;28;19913;-67
2023/05/02 11:37:10;;;;;;;;;;;;;;;-142.75;55.75;77495.59;4987565;28;19926;-67
2023/05/02 11:39:35;;;;;;;;;;;;;;;-142.75;58.27;77405.00;5003962;28;19917;-67
2023/05/02 11:42:00;;;;;;;;;;;;;;;-142.75;61.23;77369.56;4989250;28;20405;-67
2023/05/02 11:44:27;;;;;;;;;;;;;;;-142.75;54.53;77365.63;5006710;28;20492;-67
2023/05/02 11:46:52;;;;;;;;;;;;;;;-142.75;58.73;77410.91;5007249;28;19960;-67
2023/05/02 11:49:17;;;;;;;;;;;;;;;-142.75;57.18;77385.31;5005667;28;20337;-67
2023/05/02 11:51:43;;;;;;;;;;;;;;;-142.75;59.18;77361.69;5006868;28;19940;-66
2023/05/02 11:54:09;;;;;;;;;;;;;;;-142.75;58.58;77357.75;4997470;28;19914;-65
2023/05/02 11:56:34;;;;;;;;;;;;;;;-142.75;57.67;77391.22;4990442;28;19983;-67
2023/05/02 11:59:03;;;;;;;;;;;;;;;-142.75;56.37;77416.81;4989869;28;19913;-67
2023/05/02 12:01:29;;;;;;;;;;;;;;;-142.75;58.10;77440.44;4989478;28;19917;-67
2023/05/02 12:04:04;;;;;;;;;;;;;;;-142.75;57.63;77432.56;4991135;28;19928;-68
2023/05/02 12:06:29;;;;;;;;;;;;;;;-142.75;60.52;77373.50;4987066;28;20409;-67
2023/05/02 12:09:05;;;;;;;;;;;;;;;-142.75;60.07;77438.47;4998239;28;20109;-66
2023/05/02 12:11:30;;;;;;;;;;;;;;;-142.75;61.24;77503.47;4994565;28;20012;-65
2023/05/02 12:13:56;;;;;;;;;;;;;;;-142.75;63.39;77499.53;4994232;28;20013;-65
2023/05/02 12:16:21;;;;;;;;;;;;;;;-142.75;57.34;77408.94;4992628;28;20004;-66
2023/05/02 12:18:47;;;;;;;;;;;;;;;-142.75;55.45;77426.66;4990712;28;19935;-65
2023/05/02 12:21:12;;;;;;;;;;;;;;;-142.75;60.50;77440.44;4990601;28;19928;-65